createdAt,value
2019-03-25T00:00:07.635Z,4.03
2019-03-25T00:02:09.861Z,4.80
2019-03-25T00:04:12.100Z,5.50
2019-03-25T00:06:14.634Z,4.93
2019-03-25T00:08:16.862Z,5.40
2019-03-25T00:10:19.369Z,4.60
2019-03-25T00:12:21.610Z,4.60
2019-03-25T00:14:23.854Z,5.20
2019-03-25T00:16:26.073Z,4.80
2019-03-25T00:18:28.306Z,4.70
2019-03-25T00:20:30.533Z,4.20
2019-03-25T00:22:32.758Z,4.97
2019-03-25T00:24:39.112Z,4.60
2019-03-25T00:26:39.193Z,4.70
2019-03-25T00:28:41.426Z,4.67
2019-03-25T00:30:43.646Z,3.80
2019-03-25T00:32:45.868Z,4.53
2019-03-25T00:34:48.101Z,4.73
2019-03-25T00:36:50.317Z,3.90
2019-03-25T00:38:52.542Z,4.40
2019-03-25T00:40:54.762Z,3.97
2019-03-25T00:42:57.266Z,4.00
2019-03-25T00:44:59.738Z,5.00
2019-03-25T00:47:01.953Z,4.37
2019-03-25T00:49:04.185Z,3.90
2019-03-25T00:51:06.410Z,4.10
2019-03-25T00:53:08.641Z,4.10
2019-03-25T00:55:10.862Z,4.80
2019-03-25T00:57:13.082Z,5.40
2019-03-25T00:59:15.322Z,4.50
2019-03-25T01:01:17.650Z,4.90
2019-03-25T01:03:19.891Z,5.10
2019-03-25T01:05:22.113Z,5.97
2019-03-25T01:07:24.885Z,4.33
2019-03-25T01:09:27.105Z,4.57
2019-03-25T01:11:29.318Z,4.00
2019-03-25T01:13:31.541Z,3.97
2019-03-25T01:15:33.760Z,4.20
2019-03-25T01:17:35.965Z,4.50
2019-03-25T01:19:38.200Z,3.60
2019-03-25T01:21:40.409Z,4.03
2019-03-25T01:23:42.877Z,4.50
2019-03-25T01:25:45.101Z,4.67
2019-03-25T01:27:47.325Z,4.40
2019-03-25T01:29:49.549Z,4.97
2019-03-25T01:31:51.770Z,4.20
2019-03-25T01:33:53.989Z,4.57
2019-03-25T01:35:56.204Z,4.50
2019-03-25T01:37:58.434Z,4.77
2019-03-25T01:40:00.657Z,4.87
2019-03-25T01:42:02.879Z,5.30
2019-03-25T01:44:05.212Z,5.13
2019-03-25T01:46:07.432Z,4.83
2019-03-25T01:48:09.646Z,6.20
2019-03-25T01:50:11.874Z,4.43
2019-03-25T01:52:14.089Z,5.90
2019-03-25T01:54:16.346Z,4.00
2019-03-25T01:56:18.567Z,5.17
2019-03-25T01:58:20.784Z,5.13
2019-03-25T02:00:23.026Z,4.30
2019-03-25T02:02:25.249Z,5.13
2019-03-25T02:04:27.480Z,4.70
2019-03-25T02:06:29.702Z,5.90
2019-03-25T02:08:31.926Z,5.10
2019-03-25T02:10:34.253Z,6.00
2019-03-25T02:12:36.477Z,4.40
2019-03-25T02:14:38.983Z,5.20
2019-03-25T02:16:41.237Z,5.90
2019-03-25T02:18:43.474Z,4.20
2019-03-25T02:20:46.033Z,5.47
2019-03-25T02:22:48.641Z,4.97
2019-03-25T02:24:51.174Z,5.23
2019-03-25T02:26:53.401Z,5.67
2019-03-25T02:28:55.974Z,5.27
2019-03-25T02:30:58.782Z,5.40
2019-03-25T02:33:01.011Z,5.10
2019-03-25T02:35:03.360Z,5.57
2019-03-25T02:37:05.580Z,4.33
2019-03-25T02:39:07.815Z,3.83
2019-03-25T02:41:10.025Z,5.63
2019-03-25T02:43:12.267Z,4.80
2019-03-25T02:45:14.491Z,5.27
2019-03-25T02:47:16.715Z,5.80
2019-03-25T02:49:18.959Z,5.40
2019-03-25T02:51:21.189Z,6.20
2019-03-25T02:53:23.404Z,5.00
2019-03-25T02:55:40.250Z,4.80
2019-03-25T02:57:29.755Z,6.17
2019-03-25T02:59:31.998Z,5.07
2019-03-25T03:01:34.242Z,5.50
2019-03-25T03:03:36.740Z,6.93
2019-03-25T03:05:38.974Z,6.90
2019-03-25T03:07:41.198Z,5.40
2019-03-25T03:09:43.432Z,7.53
2019-03-25T03:11:45.649Z,6.97
2019-03-25T03:13:47.875Z,6.17
2019-03-25T03:15:50.102Z,6.27
2019-03-25T03:17:52.332Z,6.43
2019-03-25T03:19:55.354Z,8.30
2019-03-25T03:21:57.982Z,7.00
2019-03-25T03:24:00.213Z,6.53
2019-03-25T03:26:02.445Z,6.40
2019-03-25T03:28:04.669Z,7.40
2019-03-25T03:30:06.940Z,6.53
2019-03-25T03:32:09.158Z,7.10
2019-03-25T03:34:11.378Z,7.53
2019-03-25T03:36:13.886Z,7.40
2019-03-25T03:38:16.398Z,7.93
2019-03-25T03:40:18.738Z,6.90
2019-03-25T03:42:21.299Z,7.67
2019-03-25T03:44:24.241Z,7.40
2019-03-25T03:46:26.490Z,7.80
2019-03-25T03:48:28.795Z,8.07
2019-03-25T03:50:31.026Z,8.60
2019-03-25T03:52:33.973Z,8.70
2019-03-25T03:54:36.189Z,8.83
2019-03-25T03:56:38.464Z,7.73
2019-03-25T03:58:41.158Z,8.90
2019-03-25T04:00:43.389Z,7.87
2019-03-25T04:02:45.611Z,9.47
2019-03-25T04:04:47.834Z,9.03
2019-03-25T04:06:50.077Z,8.03
2019-03-25T04:08:52.300Z,8.20
2019-03-25T04:10:54.523Z,8.37
2019-03-25T04:12:57.676Z,9.77
2019-03-25T04:14:59.890Z,8.60
2019-03-25T04:17:02.109Z,8.87
2019-03-25T04:19:04.587Z,7.70
2019-03-25T04:21:06.833Z,7.67
2019-03-25T04:23:09.149Z,6.70
2019-03-25T04:25:11.672Z,6.50
2019-03-25T04:27:13.904Z,5.87
2019-03-25T04:29:16.123Z,6.30
2019-03-25T04:31:18.354Z,5.67
2019-03-25T04:33:20.570Z,5.63
2019-03-25T04:35:22.788Z,4.07
2019-03-25T04:37:25.017Z,5.00
2019-03-25T04:39:27.522Z,4.57
2019-03-25T04:41:29.753Z,4.77
2019-03-25T04:43:31.971Z,4.70
2019-03-25T04:45:34.208Z,5.23
2019-03-25T04:47:36.429Z,4.80
2019-03-25T04:49:38.645Z,5.00
2019-03-25T04:51:40.879Z,4.27
2019-03-25T04:53:43.098Z,4.60
2019-03-25T04:55:45.322Z,3.97
2019-03-25T04:57:47.549Z,3.40
2019-03-25T04:59:49.786Z,4.17
2019-03-25T05:01:52.022Z,3.50
2019-03-25T05:03:54.296Z,3.23
2019-03-25T05:05:56.576Z,3.10
2019-03-25T05:07:58.796Z,3.10
2019-03-25T05:10:01.017Z,3.33
2019-03-25T05:12:03.255Z,2.80
2019-03-25T05:14:05.475Z,3.17
2019-03-25T05:16:07.709Z,3.00
2019-03-25T05:18:09.934Z,3.40
2019-03-25T05:20:12.153Z,3.10
2019-03-25T05:22:14.386Z,2.70
2019-03-25T05:24:16.605Z,3.53
2019-03-25T05:26:19.161Z,3.23
2019-03-25T05:28:21.384Z,3.33
2019-03-25T05:30:23.642Z,3.40
2019-03-25T05:32:25.873Z,3.07
2019-03-25T05:34:28.441Z,3.57
2019-03-25T05:36:30.673Z,3.87
2019-03-25T05:38:32.900Z,3.23
2019-03-25T05:40:35.238Z,3.10
2019-03-25T05:42:37.470Z,3.07
2019-03-25T05:44:39.689Z,3.50
2019-03-25T05:46:41.935Z,2.60
2019-03-25T05:48:44.153Z,2.97
2019-03-25T05:50:46.377Z,3.10
2019-03-25T05:52:48.605Z,2.60
2019-03-25T05:54:51.150Z,2.27
2019-03-25T05:57:02.034Z,2.30
2019-03-25T05:58:57.741Z,2.30
2019-03-25T06:01:00.210Z,2.13
2019-03-25T06:03:02.435Z,2.63
2019-03-25T06:05:04.877Z,2.00
2019-03-25T06:07:07.102Z,2.40
2019-03-25T06:09:09.317Z,2.33
2019-03-25T06:11:11.541Z,1.80
2019-03-25T06:13:13.770Z,1.90
2019-03-25T06:15:16.309Z,2.20
2019-03-25T06:17:18.556Z,1.93
2019-03-25T06:19:21.206Z,1.67
2019-03-25T06:21:25.802Z,1.90
2019-03-25T06:23:28.030Z,1.77
2019-03-25T06:25:30.250Z,1.63
2019-03-25T06:27:32.486Z,1.77
2019-03-25T06:29:34.710Z,2.17
2019-03-25T06:31:36.937Z,2.40
2019-03-25T06:33:39.164Z,1.93
2019-03-25T06:35:41.386Z,1.80
2019-03-25T06:37:43.618Z,1.80
2019-03-25T06:39:45.840Z,2.73
2019-03-25T06:41:48.070Z,1.87
2019-03-25T06:43:50.302Z,1.70
2019-03-25T06:45:52.517Z,1.90
2019-03-25T06:47:54.756Z,2.10
2019-03-25T06:49:56.986Z,2.20
2019-03-25T06:51:59.218Z,1.80
2019-03-25T06:54:01.778Z,2.30
2019-03-25T06:56:04.001Z,1.80
2019-03-25T06:58:06.238Z,2.50
2019-03-25T07:00:08.537Z,2.03
2019-03-25T07:02:10.766Z,1.83
2019-03-25T07:04:12.978Z,2.47
2019-03-25T07:06:15.199Z,2.17
2019-03-25T07:08:17.437Z,1.80
2019-03-25T07:10:30.594Z,2.13
2019-03-25T07:12:32.823Z,1.57
2019-03-25T07:14:35.040Z,2.20
2019-03-25T07:16:37.262Z,2.50
2019-03-25T07:18:39.502Z,2.50
2019-03-25T07:20:41.725Z,2.00
2019-03-25T07:22:44.254Z,1.73
2019-03-25T07:24:46.473Z,2.37
2019-03-25T07:26:48.741Z,2.00
2019-03-25T07:28:51.019Z,2.67
2019-03-25T07:30:53.337Z,2.33
2019-03-25T07:32:55.605Z,2.13
2019-03-25T07:34:58.087Z,2.37
2019-03-25T07:37:00.319Z,2.43
2019-03-25T07:39:04.138Z,2.37
2019-03-25T07:41:06.358Z,2.37
2019-03-25T07:43:08.961Z,3.10
2019-03-25T07:45:11.355Z,3.00
2019-03-25T07:47:13.578Z,2.40
2019-03-25T07:49:15.798Z,2.90
2019-03-25T07:51:18.028Z,2.33
2019-03-25T07:53:20.237Z,2.50
2019-03-25T07:55:22.467Z,2.80
2019-03-25T07:57:24.715Z,4.10
2019-03-25T07:59:27.052Z,3.30
2019-03-25T08:01:29.369Z,3.53
2019-03-25T08:03:31.664Z,3.63
2019-03-25T08:05:33.925Z,3.17
2019-03-25T08:07:36.215Z,2.90
2019-03-25T08:09:38.776Z,2.73
2019-03-25T08:11:40.985Z,2.20
2019-03-25T08:13:43.631Z,3.30
2019-03-25T08:15:45.843Z,2.90
2019-03-25T08:17:48.081Z,2.60
2019-03-25T08:19:50.301Z,3.33
2019-03-25T08:21:52.517Z,3.70
2019-03-25T08:23:54.762Z,2.43
2019-03-25T08:25:57.069Z,3.50
2019-03-25T08:28:00.476Z,2.10
2019-03-25T08:30:03.765Z,2.43
2019-03-25T08:32:06.014Z,2.50
2019-03-25T08:34:08.246Z,1.97
2019-03-25T08:36:10.467Z,2.67
2019-03-25T08:38:12.698Z,2.43
2019-03-25T08:40:14.941Z,2.63
2019-03-25T08:42:17.185Z,2.70
2019-03-25T08:44:19.417Z,2.30
2019-03-25T08:46:21.677Z,2.43
2019-03-25T08:48:23.905Z,2.27
2019-03-25T08:50:26.127Z,2.90
2019-03-25T08:52:28.342Z,2.37
2019-03-25T08:54:30.821Z,2.13
2019-03-25T08:56:33.042Z,2.00
2019-03-25T08:58:35.277Z,2.10
2019-03-25T09:00:37.842Z,2.37
2019-03-25T09:02:40.069Z,2.30
2019-03-25T09:04:42.291Z,2.00
2019-03-25T09:06:44.510Z,2.50
2019-03-25T09:08:46.747Z,2.93
2019-03-25T09:10:48.966Z,2.10
2019-03-25T09:12:51.185Z,2.90
2019-03-25T09:14:53.413Z,2.37
2019-03-25T09:16:55.631Z,2.70
2019-03-25T09:18:58.135Z,2.67
2019-03-25T09:21:00.353Z,2.50
2019-03-25T09:23:02.611Z,3.10
2019-03-25T09:25:05.734Z,2.70
2019-03-25T09:27:08.245Z,2.37
2019-03-25T09:29:10.793Z,2.83
2019-03-25T09:31:14.380Z,2.33
2019-03-25T09:33:16.637Z,2.20
2019-03-25T09:35:18.862Z,2.47
2019-03-25T09:37:21.409Z,2.73
2019-03-25T09:39:23.651Z,2.43
2019-03-25T09:41:25.873Z,2.67
2019-03-25T09:43:28.114Z,2.57
2019-03-25T09:45:30.345Z,3.07
2019-03-25T09:47:32.578Z,2.93
2019-03-25T09:49:34.813Z,3.20
2019-03-25T09:51:37.051Z,2.70
2019-03-25T09:53:39.283Z,2.93
2019-03-25T09:55:41.508Z,2.63
2019-03-25T09:57:43.736Z,3.03
2019-03-25T09:59:46.017Z,3.03
2019-03-25T10:01:48.278Z,2.87
2019-03-25T10:03:50.511Z,2.70
2019-03-25T10:05:52.753Z,2.60
2019-03-25T10:07:54.977Z,3.10
2019-03-25T10:09:57.217Z,3.60
2019-03-25T10:11:59.719Z,2.53
2019-03-25T10:14:01.949Z,2.43
2019-03-25T10:16:04.213Z,3.03
2019-03-25T10:18:06.430Z,3.17
2019-03-25T10:20:08.718Z,2.47
2019-03-25T10:22:10.937Z,2.53
2019-03-25T10:24:13.557Z,3.00
2019-03-25T10:26:15.845Z,3.17
2019-03-25T10:28:18.070Z,2.20
2019-03-25T10:30:21.418Z,2.30
2019-03-25T10:32:23.638Z,3.30
2019-03-25T10:34:25.878Z,2.50
2019-03-25T10:36:28.101Z,2.80
2019-03-25T10:38:30.925Z,3.63
2019-03-25T10:40:33.745Z,2.50
2019-03-25T10:42:35.961Z,2.43
2019-03-25T10:44:38.465Z,2.50
2019-03-25T10:46:40.692Z,2.70
2019-03-25T10:48:42.901Z,2.70
2019-03-25T10:50:45.129Z,2.23
2019-03-25T10:52:47.349Z,3.10
2019-03-25T10:54:49.631Z,2.17
2019-03-25T10:56:52.198Z,2.50
2019-03-25T10:58:58.205Z,2.10
2019-03-25T11:00:59.314Z,2.53
2019-03-25T11:03:01.534Z,2.17
2019-03-25T11:05:04.285Z,2.60
2019-03-25T11:07:06.521Z,2.77
2019-03-25T11:09:08.825Z,2.60
2019-03-25T11:11:11.054Z,2.00
2019-03-25T11:13:13.838Z,2.20
2019-03-25T11:15:16.178Z,1.77
2019-03-25T11:17:18.389Z,2.13
2019-03-25T11:19:20.598Z,1.87
2019-03-25T11:21:22.826Z,2.30
2019-03-25T11:23:25.038Z,1.67
2019-03-25T11:25:27.583Z,2.20
2019-03-25T11:27:30.127Z,2.17
2019-03-25T11:29:32.366Z,1.90
2019-03-25T11:31:34.585Z,1.70
2019-03-25T11:33:36.797Z,1.47
2019-03-25T11:35:39.029Z,1.50
2019-03-25T11:37:41.247Z,1.40
2019-03-25T11:39:43.469Z,1.83
2019-03-25T11:41:45.686Z,1.60
2019-03-25T11:43:47.901Z,2.17
2019-03-25T11:45:50.153Z,1.97
2019-03-25T11:47:52.369Z,2.30
2019-03-25T11:49:54.599Z,2.23
2019-03-25T11:51:56.834Z,1.80
2019-03-25T11:53:59.121Z,1.87
2019-03-25T11:56:01.633Z,1.93
2019-03-25T11:58:03.845Z,2.30
2019-03-25T12:00:07.161Z,1.57
2019-03-25T12:02:17.252Z,1.57
2019-03-25T12:04:13.473Z,1.80
2019-03-25T12:06:15.962Z,2.00
2019-03-25T12:08:18.189Z,1.70
2019-03-25T12:10:20.413Z,1.90
2019-03-25T12:12:22.633Z,2.03
2019-03-25T12:14:24.850Z,2.00
2019-03-25T12:16:27.402Z,2.13
2019-03-25T12:18:29.628Z,1.90
2019-03-25T12:20:31.909Z,2.50
2019-03-25T12:22:34.126Z,2.43
2019-03-25T12:24:36.341Z,2.17
2019-03-25T12:26:38.574Z,2.17
2019-03-25T12:28:40.845Z,3.00
2019-03-25T12:30:43.118Z,2.67
2019-03-25T12:32:45.342Z,1.90
2019-03-25T12:34:47.561Z,2.43
2019-03-25T12:36:49.790Z,2.47
2019-03-25T12:38:52.330Z,2.23
2019-03-25T12:40:54.558Z,2.00
2019-03-25T12:42:56.777Z,2.33
2019-03-25T12:44:58.998Z,2.40
2019-03-25T12:47:01.221Z,2.17
2019-03-25T12:49:03.439Z,2.53
2019-03-25T12:51:05.989Z,3.27
2019-03-25T12:53:08.205Z,2.30
2019-03-25T12:55:10.742Z,2.73
2019-03-25T12:57:12.977Z,3.13
2019-03-25T12:59:15.202Z,3.33
2019-03-25T13:01:17.429Z,3.03
2019-03-25T13:03:19.646Z,3.00
2019-03-25T13:05:21.861Z,3.10
2019-03-25T13:07:24.089Z,3.20
2019-03-25T13:09:26.314Z,2.60
2019-03-25T13:11:28.544Z,3.23
2019-03-25T13:13:30.755Z,2.73
2019-03-25T13:15:32.972Z,3.03
2019-03-25T13:17:35.213Z,2.80
2019-03-25T13:19:37.425Z,3.33
2019-03-25T13:21:39.653Z,3.10
2019-03-25T13:23:41.870Z,2.83
2019-03-25T13:25:44.138Z,2.57
2019-03-25T13:27:46.452Z,2.20
2019-03-25T13:29:52.857Z,2.50
2019-03-25T13:31:52.802Z,2.47
2019-03-25T13:33:55.025Z,2.30
2019-03-25T13:35:57.590Z,2.77
2019-03-25T13:37:59.810Z,2.60
2019-03-25T13:40:02.205Z,2.97
2019-03-25T13:42:04.534Z,2.80
2019-03-25T13:44:06.758Z,2.57
2019-03-25T13:46:08.989Z,3.27
2019-03-25T13:48:11.200Z,2.40
2019-03-25T13:50:13.438Z,2.70
2019-03-25T13:52:15.666Z,3.40
2019-03-25T13:54:17.881Z,3.20
2019-03-25T13:56:20.101Z,2.40
2019-03-25T13:58:22.313Z,2.70
2019-03-25T14:00:34.831Z,3.00
2019-03-25T14:02:37.057Z,3.13
2019-03-25T14:04:39.550Z,2.40
2019-03-25T14:06:41.777Z,2.40
2019-03-25T14:08:43.990Z,3.40
2019-03-25T14:10:46.204Z,2.10
2019-03-25T14:12:48.430Z,2.53
2019-03-25T14:14:50.917Z,2.57
2019-03-25T14:16:53.141Z,2.23
2019-03-25T14:18:55.366Z,2.03
2019-03-25T14:20:57.573Z,2.10
2019-03-25T14:22:59.785Z,1.80
2019-03-25T14:25:01.998Z,1.77
2019-03-25T14:27:04.233Z,1.90
2019-03-25T14:29:06.438Z,1.80
2019-03-25T14:31:08.649Z,2.30
2019-03-25T14:33:10.886Z,1.87
2019-03-25T14:35:13.110Z,2.80
2019-03-25T14:37:15.338Z,2.03
2019-03-25T14:39:20.588Z,2.67
2019-03-25T14:41:23.326Z,2.17
2019-03-25T14:43:25.577Z,2.13
2019-03-25T14:45:27.796Z,2.00
2019-03-25T14:47:30.026Z,3.03
2019-03-25T14:49:32.246Z,2.80
2019-03-25T14:51:34.466Z,2.50
2019-03-25T14:53:44.750Z,2.60
2019-03-25T14:55:40.818Z,2.50
2019-03-25T14:57:43.387Z,2.30
2019-03-25T14:59:45.621Z,2.50
2019-03-25T15:01:48.154Z,2.23
2019-03-25T15:03:50.385Z,2.50
2019-03-25T15:05:52.606Z,2.10
2019-03-25T15:07:55.128Z,2.40
2019-03-25T15:09:57.345Z,2.30
2019-03-25T15:11:59.561Z,2.10
2019-03-25T15:14:01.805Z,2.63
2019-03-25T15:16:04.025Z,2.17
2019-03-25T15:18:15.245Z,1.50
2019-03-25T15:20:10.842Z,2.00
2019-03-25T15:22:13.053Z,1.70
2019-03-25T15:24:15.275Z,2.00
2019-03-25T15:26:17.489Z,1.70
2019-03-25T15:28:19.713Z,2.63
2019-03-25T15:30:21.942Z,1.63
2019-03-25T15:32:24.171Z,2.07
2019-03-25T15:34:26.390Z,2.00
2019-03-25T15:36:28.609Z,1.93
2019-03-25T15:38:31.093Z,2.47
2019-03-25T15:40:33.427Z,1.80
2019-03-25T15:42:35.926Z,2.40
2019-03-25T15:44:38.475Z,1.73
2019-03-25T15:46:40.697Z,1.90
2019-03-25T15:48:42.930Z,1.83
2019-03-25T15:50:45.145Z,2.30
2019-03-25T15:52:48.030Z,1.97
2019-03-25T15:54:50.249Z,1.80
2019-03-25T15:56:52.461Z,2.00
2019-03-25T15:58:54.692Z,2.40
2019-03-25T16:00:57.229Z,2.20
2019-03-25T16:02:59.451Z,2.23
2019-03-25T16:05:02.001Z,2.40
2019-03-25T16:07:04.786Z,2.33
2019-03-25T16:09:07.315Z,2.30
2019-03-25T16:11:09.529Z,2.57
2019-03-25T16:13:11.863Z,2.10
2019-03-25T16:15:41.997Z,2.40
2019-03-25T16:17:44.305Z,2.60
2019-03-25T16:19:46.535Z,2.43
2019-03-25T16:21:49.170Z,2.40
2019-03-25T16:23:51.390Z,2.03
2019-03-25T16:25:53.614Z,2.73
2019-03-25T16:27:55.836Z,3.20
2019-03-25T16:29:58.066Z,2.87
2019-03-25T16:32:00.290Z,2.40
2019-03-25T16:34:02.525Z,3.30
2019-03-25T16:36:04.745Z,3.27
2019-03-25T16:38:06.977Z,2.93
2019-03-25T16:40:09.199Z,2.73
2019-03-25T16:42:11.417Z,3.33
2019-03-25T16:44:13.641Z,3.07
2019-03-25T16:46:15.863Z,3.50
2019-03-25T16:48:18.132Z,3.63
2019-03-25T16:50:20.446Z,3.43
2019-03-25T16:52:22.658Z,3.13
2019-03-25T16:54:24.890Z,3.80
2019-03-25T16:56:27.112Z,2.63
2019-03-25T16:58:29.337Z,2.60
2019-03-25T17:00:31.854Z,3.00
2019-03-25T17:02:34.067Z,3.67
2019-03-25T17:04:36.294Z,2.80
2019-03-25T17:06:38.520Z,3.53
2019-03-25T17:08:40.746Z,3.93
2019-03-25T17:10:42.969Z,3.90
2019-03-25T17:12:45.193Z,3.13
2019-03-25T17:14:47.437Z,3.53
2019-03-25T17:16:49.658Z,3.63
2019-03-25T17:18:51.898Z,3.27
2019-03-25T17:20:54.374Z,3.17
2019-03-25T17:22:56.589Z,3.20
2019-03-25T17:24:58.822Z,4.00
2019-03-25T17:27:01.037Z,2.67
2019-03-25T17:29:03.277Z,3.63
2019-03-25T17:31:06.158Z,3.47
2019-03-25T17:33:08.720Z,3.10
2019-03-25T17:35:11.043Z,3.37
2019-03-25T17:37:13.274Z,2.70
2019-03-25T17:39:15.500Z,3.07
2019-03-25T17:41:17.977Z,3.53
2019-03-25T17:43:20.202Z,3.13
2019-03-25T17:45:22.466Z,2.90
2019-03-25T17:47:24.956Z,2.67
2019-03-25T17:49:27.189Z,3.10
2019-03-25T17:51:29.404Z,2.90
2019-03-25T17:53:33.693Z,3.00
2019-03-25T17:55:35.981Z,3.10
2019-03-25T17:57:38.204Z,3.20
2019-03-25T17:59:40.458Z,2.80
2019-03-25T18:01:42.673Z,3.50
2019-03-25T18:03:45.150Z,3.60
2019-03-25T18:05:47.394Z,2.90
2019-03-25T18:07:49.878Z,3.10
2019-03-25T18:09:52.122Z,3.33
2019-03-25T18:11:54.336Z,4.10
2019-03-25T18:13:57.085Z,3.67
2019-03-25T18:15:59.377Z,3.33
2019-03-25T18:18:01.962Z,4.50
2019-03-25T18:20:05.312Z,3.70
2019-03-25T18:22:07.538Z,3.27
2019-03-25T18:24:09.761Z,3.57
2019-03-25T18:26:11.986Z,3.00
2019-03-25T18:28:14.219Z,4.00
2019-03-25T18:30:21.121Z,4.33
2019-03-25T18:32:23.649Z,4.53
2019-03-25T18:34:25.891Z,4.70
2019-03-25T18:36:28.110Z,5.13
2019-03-25T18:38:30.333Z,4.33
2019-03-25T18:40:32.574Z,5.10
2019-03-25T18:42:34.800Z,4.70
2019-03-25T18:44:37.034Z,5.40
2019-03-25T18:46:39.261Z,5.07
2019-03-25T18:48:41.473Z,5.77
2019-03-25T18:50:43.713Z,4.77
2019-03-25T18:52:46.212Z,5.77
2019-03-25T18:54:48.444Z,5.80
2019-03-25T18:56:50.657Z,5.33
2019-03-25T18:58:52.877Z,6.67
2019-03-25T19:00:55.126Z,6.13
2019-03-25T19:02:57.354Z,6.80
2019-03-25T19:04:59.598Z,6.53
2019-03-25T19:07:01.814Z,5.90
2019-03-25T19:09:06.246Z,6.07
2019-03-25T19:11:08.464Z,6.80
2019-03-25T19:13:10.685Z,7.40
2019-03-25T19:15:13.009Z,6.60
2019-03-25T19:17:15.226Z,5.67
2019-03-25T19:19:17.466Z,5.77
2019-03-25T19:21:19.784Z,5.23
2019-03-25T19:23:22.006Z,6.40
2019-03-25T19:25:24.243Z,5.50
2019-03-25T19:27:26.778Z,5.53
2019-03-25T19:29:28.993Z,6.43
2019-03-25T19:31:31.641Z,5.73
2019-03-25T19:33:33.851Z,5.10
2019-03-25T19:35:36.095Z,4.80
2019-03-25T19:37:38.401Z,4.80
2019-03-25T19:39:40.990Z,5.47
2019-03-25T19:41:43.261Z,5.37
2019-03-25T19:43:45.579Z,5.60
2019-03-25T19:45:47.893Z,5.13
2019-03-25T19:47:50.117Z,5.57
2019-03-25T19:49:52.731Z,5.27
2019-03-25T19:51:55.414Z,4.90
2019-03-25T19:53:57.712Z,5.00
2019-03-25T19:56:00.025Z,4.97
2019-03-25T19:58:02.282Z,4.87
2019-03-25T20:00:05.955Z,5.50
2019-03-25T20:02:18.518Z,5.47
2019-03-25T20:04:12.701Z,5.67
2019-03-25T20:06:25.719Z,4.90
2019-03-25T20:08:19.171Z,5.00
2019-03-25T20:10:28.487Z,5.97
2019-03-25T20:12:30.957Z,5.93
2019-03-25T20:14:33.231Z,5.67
2019-03-25T20:16:35.496Z,5.60
2019-03-25T20:18:37.785Z,5.00
2019-03-25T20:20:40.093Z,5.10
2019-03-25T20:22:42.382Z,5.40
2019-03-25T20:24:44.661Z,5.17
2019-03-25T20:26:46.935Z,6.50
2019-03-25T20:28:49.153Z,5.90
2019-03-25T20:30:51.578Z,5.50
2019-03-25T20:32:53.886Z,6.40
2019-03-25T20:34:56.105Z,6.20
2019-03-25T20:36:58.364Z,6.57
2019-03-25T20:39:00.996Z,6.17
2019-03-25T20:41:03.292Z,5.77
2019-03-25T20:43:05.556Z,5.80
2019-03-25T20:45:08.283Z,7.03
2019-03-25T20:47:10.591Z,6.77
2019-03-25T20:49:12.897Z,6.53
2019-03-25T20:51:15.246Z,7.93
2019-03-25T20:53:17.544Z,5.93
2019-03-25T20:55:19.830Z,7.10
2019-03-25T20:57:22.112Z,6.33
2019-03-25T20:59:24.428Z,6.10
2019-03-25T21:01:26.811Z,7.13
2019-03-25T21:03:29.107Z,7.00
2019-03-25T21:05:31.407Z,6.13
2019-03-25T21:07:33.670Z,7.43
2019-03-25T21:09:36.053Z,7.57
2019-03-25T21:11:38.518Z,7.60
2019-03-25T21:13:41.232Z,9.03
2019-03-25T21:15:43.535Z,8.70
2019-03-25T21:17:46.802Z,6.47
2019-03-25T21:19:49.226Z,6.87
2019-03-25T21:21:51.997Z,6.70
2019-03-25T21:23:54.321Z,6.90
2019-03-25T21:25:56.578Z,7.70
2019-03-25T21:27:58.822Z,6.90
2019-03-25T21:30:01.037Z,7.60
2019-03-25T21:32:03.621Z,7.20
2019-03-25T21:34:06.166Z,7.30
2019-03-25T21:36:08.569Z,6.20
2019-03-25T21:38:11.091Z,8.17
2019-03-25T21:40:13.673Z,7.53
2019-03-25T21:42:15.974Z,7.80
2019-03-25T21:44:18.346Z,7.50
2019-03-25T21:46:20.759Z,7.07
2019-03-25T21:48:23.339Z,8.20
2019-03-25T21:50:25.574Z,8.50
2019-03-25T21:52:27.963Z,7.30
2019-03-25T21:54:30.242Z,6.90
2019-03-25T21:56:32.597Z,7.77
2019-03-25T21:58:34.967Z,7.70
2019-03-25T22:00:37.555Z,7.37
2019-03-25T22:02:39.853Z,8.60
2019-03-25T22:04:42.068Z,7.10
2019-03-25T22:06:44.285Z,8.30
2019-03-25T22:08:46.525Z,8.30
2019-03-25T22:10:48.758Z,8.70
2019-03-25T22:12:50.985Z,7.97
2019-03-25T22:14:53.213Z,8.70
2019-03-25T22:16:55.441Z,8.17
2019-03-25T22:18:57.677Z,9.30
2019-03-25T22:20:59.898Z,8.60
2019-03-25T22:23:02.134Z,8.87
2019-03-25T22:25:04.681Z,9.03
2019-03-25T22:27:06.938Z,10.10
2019-03-25T22:29:09.158Z,10.13
2019-03-25T22:31:11.374Z,11.83
2019-03-25T22:33:25.243Z,10.30
2019-03-25T22:35:17.755Z,13.17
2019-03-25T22:37:19.993Z,12.80
2019-03-25T22:39:22.209Z,14.77
2019-03-25T22:41:24.524Z,15.63
2019-03-25T22:43:26.961Z,14.97
2019-03-25T22:45:30.218Z,16.27
2019-03-25T22:47:32.446Z,17.90
2019-03-25T22:49:34.661Z,18.20
2019-03-25T22:51:37.136Z,16.73
2019-03-25T22:53:39.366Z,17.10
2019-03-25T22:55:41.850Z,19.43
2019-03-25T22:57:44.525Z,18.37
2019-03-25T22:59:46.749Z,17.30
2019-03-25T23:01:48.971Z,19.83
2019-03-25T23:03:51.208Z,18.17
2019-03-25T23:05:53.433Z,18.53
2019-03-25T23:07:55.666Z,19.67
2019-03-25T23:09:57.884Z,19.17
2019-03-25T23:12:00.112Z,18.67
2019-03-25T23:14:02.340Z,18.97
2019-03-25T23:16:04.561Z,18.43
2019-03-25T23:18:07.138Z,19.03
2019-03-25T23:20:09.366Z,17.17
2019-03-25T23:22:11.582Z,17.27
2019-03-25T23:24:13.812Z,18.13
2019-03-25T23:26:16.032Z,19.37
2019-03-25T23:28:18.256Z,19.50
2019-03-25T23:30:20.791Z,19.27
2019-03-25T23:32:23.005Z,19.50
2019-03-25T23:34:25.238Z,18.97
2019-03-25T23:36:27.558Z,17.80
2019-03-25T23:38:29.790Z,17.87
2019-03-25T23:40:32.013Z,16.30
2019-03-25T23:42:34.234Z,17.83
2019-03-25T23:44:36.461Z,15.27
2019-03-25T23:46:38.958Z,18.33
2019-03-25T23:48:41.192Z,18.87
2019-03-25T23:50:43.408Z,19.33
2019-03-25T23:52:45.637Z,19.13
2019-03-25T23:54:48.201Z,17.17
2019-03-25T23:56:50.424Z,18.20
2019-03-25T23:58:52.657Z,18.20
